Terminal Aerodrome Forecast
Issued by NWS

Home | Current Version | Previous Version | Text Only | Print | Product List | Glossary On
Versions: 1 2 3 4 5 6 7 8 9 10 11 12
000
FTUS46 KLOX 202300 RRA
TAFSBA
TAF
KSBA 202345Z 2100/2124 23008KT P6SM SKC
     FM210200 VRB03KT P6SM SKC
     FM211700 16006KT P6SM SKC
     FM212100 24006KT P6SM SKC=

USA.gov is the U.S. government's official web portal to all federal, state and local government web resources and services.